Time;durP1;ratioP1;P1;durP2;ratioP2;P2;SDS_P1;SDS_P2;PMS_P1;PMS_P2;Temp;Humidity;BMP_temperature;BMP_pressure;BME280_temperature;BME280_humidity;BME280_pressure;Samples;Min_cycle;Max_cycle;Signal;HPM_P1;HPM_P2
2021/06/16 00:00:23;;;;;;;5.47;4.83;;;17.40;97.90;;;;;;5007068;28;20211;-61
2021/06/16 00:02:49;;;;;;;5.27;4.77;;;17.40;97.80;;;;;;5023790;28;20226;-60
2021/06/16 00:05:25;;;;;;;7.50;5.07;;;17.30;97.80;;;;;;5026115;28;20200;-61
2021/06/16 00:07:51;;;;;;;9.90;5.60;;;17.30;97.90;;;;;;5026193;28;20175;-61
2021/06/16 00:10:20;;;;;;;6.97;5.37;;;17.30;97.70;;;;;;5026446;28;20943;-60
2021/06/16 00:12:45;;;;;;;6.87;5.10;;;17.20;97.70;;;;;;5008476;28;20195;-61
2021/06/16 00:15:15;;;;;;;7.60;5.80;;;17.20;97.70;;;;;;5022125;28;20437;-61
2021/06/16 00:17:41;;;;;;;6.53;5.53;;;17.10;97.90;;;;;;5026684;28;20183;-61
2021/06/16 00:20:08;;;;;;;6.53;5.20;;;17.10;97.90;;;;;;5010684;28;20458;-61
2021/06/16 00:22:33;;;;;;;6.67;5.63;;;17.10;98.30;;;;;;5023627;28;20446;-61
2021/06/16 00:24:59;;;;;;;11.13;5.70;;;17.00;98.40;;;;;;5025672;28;20426;-61
2021/06/16 00:27:24;;;;;;;8.13;5.90;;;17.00;98.50;;;;;;5028803;28;20176;-61
2021/06/16 00:29:50;;;;;;;6.13;5.33;;;17.00;98.60;;;;;;5009453;28;20267;-62
2021/06/16 00:32:16;;;;;;;6.10;5.50;;;16.90;98.70;;;;;;5019935;28;20219;-62
2021/06/16 00:34:41;;;;;;;7.30;5.07;;;16.90;98.90;;;;;;5025327;28;20182;-61
2021/06/16 00:37:07;;;;;;;6.70;5.10;;;16.90;99.10;;;;;;5024952;28;20219;-61
2021/06/16 00:39:33;;;;;;;13.43;5.20;;;16.80;99.30;;;;;;5008194;28;20286;-61
2021/06/16 00:41:59;;;;;;;8.97;5.50;;;16.80;99.40;;;;;;5023674;28;20230;-61
2021/06/16 00:44:25;;;;;;;7.23;4.93;;;16.80;99.50;;;;;;5027212;28;20237;-60
2021/06/16 00:46:50;;;;;;;11.33;4.87;;;16.80;99.50;;;;;;5027069;28;20434;-61
2021/06/16 00:49:16;;;;;;;10.87;6.00;;;16.70;99.40;;;;;;5026601;28;20656;-61
2021/06/16 00:51:42;;;;;;;7.40;5.20;;;16.70;99.40;;;;;;5022599;28;20696;-60
2021/06/16 00:54:10;;;;;;;6.50;5.10;;;16.70;99.30;;;;;;5027069;28;20263;-60
2021/06/16 00:56:41;;;;;;;7.37;4.83;;;16.70;99.20;;;;;;5026425;28;20176;-61
2021/06/16 00:59:08;;;;;;;8.00;5.07;;;16.60;99.20;;;;;;5024267;28;20476;-61
2021/06/16 01:01:42;;;;;;;8.30;5.80;;;16.60;99.20;;;;;;5024514;28;20508;-61
2021/06/16 01:04:21;;;;;;;12.73;5.23;;;16.60;99.20;;;;;;5027453;28;20752;-61
2021/06/16 01:06:54;;;;;;;8.83;5.77;;;16.60;99.40;;;;;;5022977;28;20938;-60
2021/06/16 01:09:32;;;;;;;8.30;5.30;;;16.50;99.50;;;;;;5024102;28;20458;-61
2021/06/16 01:12:18;;;;;;;9.60;5.17;;;16.50;99.80;;;;;;5023312;28;20464;-61
2021/06/16 01:14:53;;;;;;;8.73;5.50;;;16.50;99.90;;;;;;5021756;28;20434;-61
2021/06/16 01:17:23;;;;;;;6.57;5.60;;;16.40;99.90;;;;;;5026469;28;20428;-61
2021/06/16 01:19:51;;;;;;;9.47;5.70;;;16.40;99.70;;;;;;5025312;28;20461;-61
2021/06/16 01:22:19;;;;;;;5.10;4.60;;;16.40;99.70;;;;;;5025920;28;20446;-60
2021/06/16 01:24:50;;;;;;;6.10;4.93;;;16.30;99.60;;;;;;5027114;28;20535;-61
2021/06/16 01:27:16;;;;;;;8.33;6.60;;;16.30;99.80;;;;;;5025758;28;20442;-61
2021/06/16 01:29:43;;;;;;;6.60;4.97;;;16.20;99.70;;;;;;5026073;28;20440;-61
2021/06/16 01:32:10;;;;;;;5.90;5.00;;;16.20;99.90;;;;;;5024498;28;20470;-61
2021/06/16 01:34:36;;;;;;;9.60;5.37;;;16.20;99.90;;;;;;5024217;28;20484;-61
2021/06/16 01:37:02;;;;;;;7.40;5.40;;;16.10;99.90;;;;;;5006338;28;20434;-60
2021/06/16 01:39:34;;;;;;;6.43;5.13;;;16.10;99.90;;;;;;5024486;28;20455;-61
2021/06/16 01:42:06;;;;;;;14.17;5.57;;;16.10;99.90;;;;;;5006410;28;20467;-61
2021/06/16 01:44:33;;;;;;;7.13;5.40;;;16.00;99.90;;;;;;5024090;28;20942;-61
2021/06/16 01:46:59;;;;;;;10.10;5.63;;;16.00;99.90;;;;;;5023822;28;20450;-61
2021/06/16 01:49:27;;;;;;;6.27;5.27;;;16.00;99.90;;;;;;5024340;28;20842;-61
2021/06/16 01:51:54;;;;;;;5.93;5.00;;;16.00;99.90;;;;;;5022632;28;20822;-61
2021/06/16 01:54:20;;;;;;;5.37;4.67;;;16.00;99.90;;;;;;5008511;28;20482;-61
2021/06/16 01:56:49;;;;;;;7.53;5.53;;;15.90;99.90;;;;;;5025505;28;20529;-61
2021/06/16 01:59:15;;;;;;;9.30;5.80;;;15.90;99.90;;;;;;5004919;28;20466;-60
2021/06/16 02:01:42;;;;;;;11.30;5.20;;;15.90;99.90;;;;;;5007945;28;20890;-60
2021/06/16 02:04:07;;;;;;;8.70;5.60;;;15.90;99.90;;;;;;5006845;28;20811;-61
2021/06/16 02:06:40;;;;;;;6.63;4.70;;;15.90;99.90;;;;;;5024977;28;20435;-62
2021/06/16 02:09:09;;;;;;;9.33;5.20;;;15.80;99.90;;;;;;5020975;28;20214;-61
2021/06/16 02:11:38;;;;;;;7.63;5.50;;;15.90;99.90;;;;;;5020715;28;20946;-60
2021/06/16 02:14:06;;;;;;;5.63;4.80;;;15.80;99.90;;;;;;5012636;28;20485;-62
2021/06/16 02:16:46;;;;;;;8.73;5.60;;;15.80;99.90;;;;;;5008087;28;20489;-61
2021/06/16 02:19:14;;;;;;;7.13;5.33;;;15.80;99.90;;;;;;5021827;28;20469;-60
2021/06/16 02:21:41;;;;;;;6.57;5.57;;;15.80;99.90;;;;;;5024352;28;21016;-61
2021/06/16 02:24:08;;;;;;;9.50;5.60;;;15.80;99.90;;;;;;5027393;28;20946;-61
2021/06/16 02:26:34;;;;;;;7.63;5.50;;;15.70;99.90;;;;;;5027810;28;20982;-60
2021/06/16 02:29:00;;;;;;;11.00;5.47;;;15.70;99.90;;;;;;5025009;28;20974;-60
2021/06/16 02:31:26;;;;;;;9.90;5.70;;;15.70;99.90;;;;;;5023235;28;20473;-61
2021/06/16 02:33:52;;;;;;;6.53;5.03;;;15.70;99.90;;;;;;5012715;28;20663;-60
2021/06/16 02:36:21;;;;;;;8.07;5.17;;;15.70;99.90;;;;;;5026788;28;20310;-61
2021/06/16 02:38:51;;;;;;;10.97;5.83;;;15.60;99.90;;;;;;5025171;28;21011;-60
2021/06/16 02:41:17;;;;;;;8.20;4.57;;;15.60;99.90;;;;;;5027914;28;20597;-61
2021/06/16 02:43:43;;;;;;;7.40;5.50;;;15.60;99.90;;;;;;5025252;28;20577;-60
2021/06/16 02:46:11;;;;;;;7.87;5.27;;;15.60;99.90;;;;;;5014620;28;21619;-60
2021/06/16 02:48:41;;;;;;;6.37;5.60;;;15.50;99.90;;;;;;5026155;28;20465;-60
2021/06/16 02:51:09;;;;;;;7.10;5.77;;;15.50;99.90;;;;;;5026198;28;20434;-60
2021/06/16 02:53:35;;;;;;;5.43;4.87;;;15.50;99.90;;;;;;5025844;28;20453;-61
2021/06/16 02:56:02;;;;;;;6.93;4.57;;;15.50;99.90;;;;;;5027075;28;20456;-60
2021/06/16 02:58:33;;;;;;;7.00;5.67;;;15.50;99.90;;;;;;5024439;28;20493;-61
2021/06/16 03:01:01;;;;;;;8.40;5.13;;;15.50;99.90;;;;;;5011495;28;20477;-61
2021/06/16 03:03:28;;;;;;;14.30;5.77;;;15.40;99.90;;;;;;5027410;28;20441;-60
2021/06/16 03:05:56;;;;;;;8.30;5.90;;;15.40;99.90;;;;;;5026391;28;21005;-61
2021/06/16 03:08:24;;;;;;;7.13;5.20;;;15.30;99.90;;;;;;5024428;28;20485;-61
2021/06/16 03:10:50;;;;;;;6.87;5.10;;;15.30;99.90;;;;;;5024843;28;20914;-61
2021/06/16 03:13:17;;;;;;;6.60;5.53;;;15.30;99.90;;;;;;5024245;28;20430;-60
2021/06/16 03:15:47;;;;;;;6.43;4.90;;;15.20;99.90;;;;;;5024789;28;20434;-61
2021/06/16 03:18:15;;;;;;;9.03;6.00;;;15.20;99.90;;;;;;5027165;28;20483;-61
2021/06/16 03:20:42;;;;;;;8.43;5.57;;;15.20;99.90;;;;;;5025228;28;20861;-60
2021/06/16 03:23:09;;;;;;;7.57;5.77;;;15.10;99.90;;;;;;5025056;28;20490;-61
2021/06/16 03:25:36;;;;;;;6.80;5.50;;;15.10;99.90;;;;;;5026888;28;20430;-61
2021/06/16 03:28:03;;;;;;;7.37;5.37;;;15.10;99.90;;;;;;5026533;28;20438;-60
2021/06/16 03:30:31;;;;;;;7.27;5.60;;;15.00;99.90;;;;;;5026462;28;20805;-61
2021/06/16 03:32:58;;;;;;;7.80;5.30;;;15.00;99.90;;;;;;5043086;22;20590;-57
2021/06/16 03:35:24;;;;;;;6.13;5.23;;;15.00;99.90;;;;;;5018719;28;20438;-60
2021/06/16 03:37:52;;;;;;;10.20;5.77;;;15.00;99.90;;;;;;5024956;28;20521;-59
2021/06/16 03:40:19;;;;;;;6.43;5.10;;;15.00;99.90;;;;;;5026207;28;20512;-59
2021/06/16 03:42:48;;;;;;;6.13;5.17;;;15.00;99.90;;;;;;5029906;28;20940;-58
2021/06/16 03:45:14;;;;;;;6.50;5.60;;;14.90;99.90;;;;;;5023199;28;20435;-60
2021/06/16 03:47:43;;;;;;;9.47;5.60;;;14.90;99.90;;;;;;5026876;28;20481;-58
2021/06/16 03:50:11;;;;;;;6.27;5.57;;;14.90;99.90;;;;;;5027821;28;20434;-57
2021/06/16 03:52:37;;;;;;;6.80;5.70;;;14.90;99.90;;;;;;5024040;28;20515;-60
2021/06/16 03:55:05;;;;;;;6.43;5.37;;;14.90;99.90;;;;;;5023416;28;20435;-57
2021/06/16 03:57:33;;;;;;;7.73;5.60;;;14.90;99.90;;;;;;5027738;28;20469;-57
2021/06/16 04:00:00;;;;;;;7.10;5.40;;;14.90;99.90;;;;;;5024229;28;20508;-58
2021/06/16 04:02:26;;;;;;;8.63;5.57;;;14.90;99.90;;;;;;5022996;28;20634;-57
2021/06/16 04:04:52;;;;;;;10.93;5.63;;;14.90;99.90;;;;;;5025196;28;20422;-57
2021/06/16 04:07:20;;;;;;;7.43;5.13;;;14.90;99.90;;;;;;5023693;28;20442;-57
2021/06/16 04:09:51;;;;;;;7.13;5.20;;;14.90;99.90;;;;;;5023322;28;20526;-58
2021/06/16 04:12:17;;;;;;;9.33;5.83;;;14.90;99.90;;;;;;5023954;28;20450;-58
2021/06/16 04:14:45;;;;;;;9.67;6.43;;;14.90;99.90;;;;;;5026672;28;20461;-59
2021/06/16 04:17:10;;;;;;;7.50;6.27;;;14.90;99.90;;;;;;5025528;28;20441;-56
2021/06/16 04:19:37;;;;;;;10.83;6.23;;;15.00;99.90;;;;;;5023750;28;20903;-58
2021/06/16 04:22:03;;;;;;;9.90;5.80;;;14.90;99.90;;;;;;5015823;28;20197;-57
2021/06/16 04:24:28;;;;;;;6.80;5.50;;;14.90;99.90;;;;;;5022513;28;20454;-55
2021/06/16 04:26:54;;;;;;;9.83;6.03;;;15.00;99.90;;;;;;5023702;28;20455;-55
2021/06/16 04:29:20;;;;;;;14.87;5.80;;;15.00;99.90;;;;;;5027454;28;20569;-58
2021/06/16 04:31:45;;;;;;;7.20;5.93;;;15.00;99.90;;;;;;5018165;28;20183;-58
2021/06/16 04:34:11;;;;;;;6.40;5.53;;;15.00;99.90;;;;;;5023460;28;20183;-59
2021/06/16 04:36:37;;;;;;;6.50;5.47;;;15.00;99.90;;;;;;5016935;28;20233;-57
2021/06/16 04:39:03;;;;;;;5.73;5.13;;;15.00;99.90;;;;;;5023400;28;20210;-58
2021/06/16 04:41:28;;;;;;;15.70;5.20;;;15.00;99.90;;;;;;5019562;28;20171;-61
2021/06/16 04:43:54;;;;;;;8.70;5.37;;;15.00;99.90;;;;;;5011335;28;20203;-58
2021/06/16 04:46:20;;;;;;;11.30;5.80;;;15.00;99.90;;;;;;5015209;28;20227;-67
2021/06/16 04:48:45;;;;;;;7.00;5.90;;;15.00;99.90;;;;;;5012393;28;20235;-63
2021/06/16 04:51:11;;;;;;;6.00;5.37;;;15.00;99.90;;;;;;5012296;28;20187;-59
2021/06/16 04:53:36;;;;;;;7.23;5.40;;;15.10;99.90;;;;;;5016143;28;20199;-60
2021/06/16 04:56:03;;;;;;;7.37;5.70;;;15.10;99.90;;;;;;5015875;28;20176;-52
2021/06/16 04:58:28;;;;;;;14.00;5.80;;;15.10;99.90;;;;;;5023158;28;20283;-62
2021/06/16 05:00:54;;;;;;;8.77;6.77;;;15.10;99.90;;;;;;5007861;28;20438;-61
2021/06/16 05:03:20;;;;;;;12.60;6.30;;;15.10;99.90;;;;;;5011047;28;20195;-60
2021/06/16 05:05:45;;;;;;;8.17;5.73;;;15.20;99.90;;;;;;5013492;28;20176;-59
2021/06/16 05:08:11;;;;;;;9.00;5.73;;;15.20;99.90;;;;;;5016166;28;20233;-60
2021/06/16 05:10:37;;;;;;;7.70;5.60;;;15.20;99.90;;;;;;5017497;28;20708;-58
2021/06/16 05:13:03;;;;;;;7.93;6.13;;;15.30;99.90;;;;;;5030209;28;20250;-58
2021/06/16 05:15:28;;;;;;;9.47;5.53;;;15.40;99.90;;;;;;5019983;28;20287;-59
2021/06/16 05:17:54;;;;;;;9.77;6.20;;;15.50;99.90;;;;;;5026844;28;20522;-60
2021/06/16 05:20:20;;;;;;;7.40;5.27;;;15.50;99.90;;;;;;5027701;28;20721;-58
2021/06/16 05:22:49;;;;;;;8.60;5.77;;;15.60;99.90;;;;;;5024166;28;20206;-60
2021/06/16 05:25:17;;;;;;;12.53;5.60;;;15.60;99.90;;;;;;5026133;28;20180;-55
2021/06/16 05:27:43;;;;;;;7.40;4.97;;;15.80;99.90;;;;;;5027667;28;20426;-58
2021/06/16 05:30:09;;;;;;;7.03;5.00;;;15.80;99.90;;;;;;5025961;28;20458;-56
2021/06/16 05:32:36;;;;;;;6.83;5.23;;;16.00;99.90;;;;;;5023992;28;20553;-58
2021/06/16 05:35:02;;;;;;;15.90;9.97;;;16.10;99.90;;;;;;5024780;28;20426;-58
2021/06/16 05:37:28;;;;;;;72.10;36.40;;;16.10;99.80;;;;;;5027904;28;20431;-58
2021/06/16 05:39:53;;;;;;;22.63;11.90;;;16.30;99.70;;;;;;5027614;28;20470;-56
2021/06/16 05:42:19;;;;;;;10.33;7.10;;;16.40;99.50;;;;;;5024324;28;21069;-57
2021/06/16 05:44:45;;;;;;;7.63;5.70;;;16.50;99.20;;;;;;5026658;28;20703;-58
2021/06/16 05:47:10;;;;;;;11.53;5.77;;;16.60;98.90;;;;;;5026429;28;20188;-60
2021/06/16 05:49:36;;;;;;;9.23;5.20;;;16.70;98.60;;;;;;5027141;28;20263;-59
2021/06/16 05:52:02;;;;;;;11.53;5.37;;;16.70;98.50;;;;;;5023978;28;20207;-57
2021/06/16 05:54:27;;;;;;;10.20;6.10;;;16.80;98.50;;;;;;5027002;28;20179;-56
2021/06/16 05:56:53;;;;;;;12.87;6.80;;;16.90;98.20;;;;;;5026096;28;20592;-57
2021/06/16 05:59:19;;;;;;;10.30;5.53;;;17.00;98.30;;;;;;5025014;28;20203;-60
2021/06/16 06:01:45;;;;;;;10.90;6.80;;;17.10;97.70;;;;;;5012620;28;20180;-59
2021/06/16 06:04:10;;;;;;;11.43;5.80;;;17.20;97.20;;;;;;5025294;28;20168;-59
2021/06/16 06:06:37;;;;;;;7.77;5.43;;;17.20;96.60;;;;;;5018490;28;20648;-58
2021/06/16 06:09:08;;;;;;;9.10;6.80;;;17.30;96.70;;;;;;5015155;28;20221;-59
2021/06/16 06:11:36;;;;;;;22.40;7.20;;;17.40;96.60;;;;;;5018486;28;20509;-58
2021/06/16 06:14:02;;;;;;;24.63;8.23;;;17.50;95.90;;;;;;5016935;28;20509;-60
2021/06/16 06:16:28;;;;;;;16.07;6.90;;;17.60;95.70;;;;;;5022993;28;20466;-59
2021/06/16 06:18:53;;;;;;;22.33;7.67;;;17.70;95.90;;;;;;5024664;28;20917;-59
2021/06/16 06:21:19;;;;;;;14.90;6.73;;;17.80;95.50;;;;;;5018604;28;20172;-62
2021/06/16 06:23:45;;;;;;;9.80;6.10;;;18.00;95.30;;;;;;5022248;28;20200;-60
2021/06/16 06:26:10;;;;;;;19.23;7.47;;;18.10;95.10;;;;;;5020637;28;20184;-59
2021/06/16 06:28:36;;;;;;;17.30;6.23;;;18.20;94.30;;;;;;5015476;28;21143;-59
2021/06/16 06:31:03;;;;;;;14.10;5.93;;;18.30;94.20;;;;;;5020173;28;20184;-60
2021/06/16 06:33:29;;;;;;;10.97;5.90;;;18.40;94.30;;;;;;5014479;28;20583;-57
2021/06/16 06:35:54;;;;;;;16.90;6.63;;;18.60;94.60;;;;;;5019643;28;20442;-57
2021/06/16 06:38:20;;;;;;;13.47;5.90;;;18.70;93.90;;;;;;5024218;28;20550;-58
2021/06/16 06:40:46;;;;;;;11.40;5.87;;;18.80;92.60;;;;;;5025395;28;20660;-57
2021/06/16 06:43:11;;;;;;;8.20;5.10;;;18.90;92.30;;;;;;5019317;28;20570;-58
2021/06/16 06:45:37;;;;;;;8.50;4.53;;;18.90;92.00;;;;;;5016668;28;20707;-60
2021/06/16 06:48:03;;;;;;;11.40;4.63;;;19.10;91.90;;;;;;5015379;28;20172;-60
2021/06/16 06:50:29;;;;;;;7.77;4.80;;;19.10;91.20;;;;;;5021067;28;20191;-61
2021/06/16 06:52:54;;;;;;;9.93;4.57;;;19.30;91.00;;;;;;5024650;28;20550;-58
2021/06/16 06:55:20;;;;;;;8.63;4.90;;;19.40;90.70;;;;;;5027241;28;20176;-60
2021/06/16 06:57:46;;;;;;;6.30;4.23;;;19.50;90.30;;;;;;5024524;28;20203;-58
2021/06/16 07:00:13;;;;;;;6.20;4.43;;;19.70;89.40;;;;;;5016146;28;20578;-60
2021/06/16 07:02:39;;;;;;;6.87;4.73;;;19.80;88.10;;;;;;5026808;28;20215;-59
2021/06/16 07:05:06;;;;;;;7.67;4.67;;;19.90;86.70;;;;;;5023907;28;20564;-58
2021/06/16 07:07:31;;;;;;;7.97;4.80;;;20.10;84.80;;;;;;5022092;28;20517;-62
2021/06/16 07:09:57;;;;;;;14.23;5.90;;;20.20;83.70;;;;;;5027942;28;21001;-58
2021/06/16 07:12:23;;;;;;;8.20;5.10;;;20.40;83.30;;;;;;5025697;28;20226;-58
2021/06/16 07:14:49;;;;;;;14.57;5.53;;;20.50;82.80;;;;;;5028859;28;20187;-61
2021/06/16 07:17:14;;;;;;;9.03;4.67;;;20.60;80.50;;;;;;5028773;28;20183;-61
2021/06/16 07:19:40;;;;;;;8.67;4.93;;;20.80;79.90;;;;;;5011351;28;20451;-59
2021/06/16 07:22:06;;;;;;;5.50;4.60;;;20.80;78.70;;;;;;5018831;28;20195;-60
2021/06/16 07:24:32;;;;;;;10.00;4.50;;;21.00;77.50;;;;;;5029070;28;20187;-59
2021/06/16 07:26:57;;;;;;;6.10;4.27;;;21.10;73.90;;;;;;5026941;28;20243;-61
2021/06/16 07:29:23;;;;;;;6.40;4.27;;;21.10;73.70;;;;;;5029601;28;20176;-60
2021/06/16 07:31:50;;;;;;;6.80;4.40;;;21.20;73.60;;;;;;5025019;28;20271;-59
2021/06/16 07:34:16;;;;;;;5.60;4.10;;;21.40;73.50;;;;;;5028311;28;20553;-58
2021/06/16 07:36:42;;;;;;;6.30;3.47;;;21.50;70.10;;;;;;5028252;28;20430;-59
2021/06/16 07:39:07;;;;;;;7.27;4.40;;;21.60;70.40;;;;;;5027624;28;20466;-59
2021/06/16 07:41:34;;;;;;;5.73;3.70;;;21.70;67.80;;;;;;5020918;28;20168;-61
2021/06/16 07:44:00;;;;;;;17.40;4.13;;;21.80;66.30;;;;;;5029900;28;20175;-60
2021/06/16 07:46:25;;;;;;;8.70;4.57;;;21.90;65.30;;;;;;5030749;28;20454;-59
2021/06/16 07:48:51;;;;;;;8.57;4.60;;;22.00;65.20;;;;;;5024421;28;20188;-60
2021/06/16 07:51:17;;;;;;;7.70;3.60;;;22.10;64.70;;;;;;5026129;28;20184;-59
2021/06/16 07:53:43;;;;;;;4.53;3.80;;;22.20;65.00;;;;;;5028563;28;20599;-59
2021/06/16 07:56:09;;;;;;;8.70;4.30;;;22.30;65.50;;;;;;5027848;28;20475;-59
2021/06/16 07:58:34;;;;;;;6.10;4.03;;;22.40;66.00;;;;;;5019602;28;20189;-58
2021/06/16 08:01:00;;;;;;;10.63;4.00;;;22.50;64.70;;;;;;5024628;28;20176;-59
2021/06/16 08:03:27;;;;;;;5.10;3.60;;;22.60;65.20;;;;;;5028632;28;20274;-58
2021/06/16 08:05:54;;;;;;;7.67;3.67;;;22.70;65.90;;;;;;5022994;28;20177;-57
2021/06/16 08:08:20;;;;;;;4.60;4.00;;;22.80;62.80;;;;;;5029109;28;20430;-60
2021/06/16 08:10:46;;;;;;;8.23;4.17;;;22.90;63.00;;;;;;5027133;28;20437;-56
2021/06/16 08:13:11;;;;;;;5.87;3.60;;;23.00;63.20;;;;;;5024449;28;20613;-58
2021/06/16 08:15:37;;;;;;;6.50;4.10;;;23.10;63.80;;;;;;5014754;28;20180;-61
2021/06/16 08:18:03;;;;;;;9.73;3.90;;;23.20;63.10;;;;;;5032257;28;20175;-62
2021/06/16 08:20:29;;;;;;;7.90;3.80;;;23.30;62.60;;;;;;5034060;28;20192;-60
2021/06/16 08:22:54;;;;;;;5.07;3.50;;;23.40;61.00;;;;;;5030253;28;20208;-60
2021/06/16 08:25:20;;;;;;;12.03;4.07;;;23.50;61.20;;;;;;5034854;28;20164;-59
2021/06/16 08:27:46;;;;;;;6.00;4.10;;;23.60;60.90;;;;;;5028240;28;20237;-60
2021/06/16 08:30:13;;;;;;;4.60;3.73;;;23.70;59.50;;;;;;5025946;28;20191;-58
2021/06/16 08:32:41;;;;;;;12.03;3.80;;;23.80;59.60;;;;;;5016910;28;20303;-60
2021/06/16 08:35:10;;;;;;;5.70;4.10;;;23.90;60.00;;;;;;5014196;28;20563;-63
2021/06/16 08:37:35;;;;;;;6.10;3.50;;;24.10;59.30;;;;;;5017624;28;20951;-66
2021/06/16 08:40:02;;;;;;;7.10;3.10;;;24.20;58.40;;;;;;5017161;28;20473;-58
2021/06/16 08:42:28;;;;;;;5.00;2.87;;;24.40;54.00;;;;;;5025354;28;20212;-59
2021/06/16 08:44:56;;;;;;;4.97;3.07;;;24.40;52.60;;;;;;5028432;28;20449;-59
2021/06/16 08:47:22;;;;;;;3.60;2.60;;;24.60;51.50;;;;;;5027327;28;20779;-61
2021/06/16 08:49:49;;;;;;;3.63;2.87;;;24.70;51.10;;;;;;5012490;28;20449;-58
2021/06/16 08:52:16;;;;;;;11.20;3.13;;;24.90;50.90;;;;;;5026466;28;20465;-59
2021/06/16 08:54:42;;;;;;;3.93;3.00;;;25.00;50.10;;;;;;5021703;28;20845;-59
2021/06/16 08:57:08;;;;;;;5.47;2.50;;;25.10;48.90;;;;;;5022707;28;20431;-58
2021/06/16 08:59:34;;;;;;;4.03;2.70;;;25.20;47.20;;;;;;5008937;28;20192;-59
2021/06/16 09:02:00;;;;;;;4.90;2.90;;;25.20;47.50;;;;;;5024086;28;20345;-59
2021/06/16 09:04:47;;;;;;;3.37;3.00;;;25.30;46.40;;;;;;5027631;28;20438;-58
2021/06/16 09:07:24;;;;;;;4.33;2.70;;;25.40;47.00;;;;;;5026406;28;20430;-59
2021/06/16 09:10:04;;;;;;;5.43;2.77;;;25.60;47.00;;;;;;5012935;28;20752;-57
2021/06/16 09:12:31;;;;;;;11.13;3.97;;;25.70;46.90;;;;;;5020167;28;20493;-58
2021/06/16 09:14:57;;;;;;;4.03;2.80;;;25.80;47.20;;;;;;5027052;28;20457;-58
2021/06/16 09:17:24;;;;;;;8.67;3.40;;;25.90;46.30;;;;;;5028443;28;20446;-60
2021/06/16 09:20:00;;;;;;;3.60;3.17;;;26.00;46.50;;;;;;5026767;28;20687;-58
2021/06/16 09:22:30;;;;;;;3.97;3.43;;;26.10;45.80;;;;;;5021644;28;20445;-59
2021/06/16 09:24:57;;;;;;;6.17;3.23;;;26.10;45.80;;;;;;5028164;28;20922;-58
2021/06/16 09:27:40;;;;;;;10.10;4.20;;;26.20;45.90;;;;;;5029091;28;20541;-61
2021/06/16 09:30:18;;;;;;;4.23;3.80;;;26.30;46.30;;;;;;5023836;28;20524;-58
2021/06/16 09:32:48;;;;;;;4.43;3.10;;;26.40;46.00;;;;;;5027534;28;20667;-58
2021/06/16 09:35:32;;;;;;;4.13;3.47;;;26.50;46.00;;;;;;5027454;28;20438;-57
2021/06/16 09:38:00;;;;;;;4.97;3.63;;;26.60;46.20;;;;;;5020210;28;20442;-60
2021/06/16 09:40:35;;;;;;;3.97;3.57;;;26.70;46.10;;;;;;5026591;28;20454;-58
2021/06/16 09:43:13;;;;;;;4.23;3.33;;;26.80;46.10;;;;;;5028012;28;20457;-58
2021/06/16 09:45:41;;;;;;;4.87;3.37;;;26.90;46.10;;;;;;5024937;28;20437;-57
2021/06/16 09:48:24;;;;;;;8.80;3.50;;;27.00;45.10;;;;;;5019946;28;20429;-59
2021/06/16 09:51:13;;;;;;;7.13;4.50;;;27.10;44.80;;;;;;5023589;28;20442;-58
2021/06/16 09:54:13;;;;;;;6.03;3.70;;;27.20;45.50;;;;;;5023784;28;20932;-57
2021/06/16 09:56:53;;;;;;;6.97;3.70;;;27.30;44.20;;;;;;5020787;28;20445;-57
2021/06/16 09:59:35;;;;;;;4.03;3.50;;;27.30;44.00;;;;;;5018044;28;20560;-59
2021/06/16 10:02:01;;;;;;;10.73;3.30;;;27.30;43.90;;;;;;5022864;28;20430;-58
2021/06/16 10:04:55;;;;;;;6.00;2.60;;;27.40;43.70;;;;;;5025744;28;20440;-58
2021/06/16 10:07:25;;;;;;;3.20;2.90;;;27.40;40.80;;;;;;5027203;28;20167;-57
2021/06/16 10:09:54;;;;;;;15.30;3.40;;;27.50;42.00;;;;;;5027226;28;20480;-59
2021/06/16 10:12:21;;;;;;;3.60;3.30;;;27.60;43.60;;;;;;5026047;28;20476;-58
2021/06/16 10:14:48;;;;;;;3.50;3.20;;;27.80;44.60;;;;;;5048731;22;20447;-57
2021/06/16 10:17:15;;;;;;;3.27;2.97;;;27.90;42.20;;;;;;5045009;28;20480;-60
2021/06/16 10:19:45;;;;;;;7.90;3.63;;;27.90;42.00;;;;;;5046351;28;20483;-61
2021/06/16 10:22:12;;;;;;;3.23;2.93;;;27.90;43.30;;;;;;5027738;28;20425;-60
2021/06/16 10:24:39;;;;;;;3.97;2.90;;;28.00;41.40;;;;;;5041407;28;20421;-59
2021/06/16 10:27:07;;;;;;;7.93;3.27;;;28.10;40.40;;;;;;5008640;28;20445;-59
2021/06/16 10:29:41;;;;;;;5.43;3.40;;;28.20;42.00;;;;;;5022073;28;21004;-60
2021/06/16 10:32:08;;;;;;;3.30;3.00;;;28.30;41.70;;;;;;4997747;28;20434;-59
2021/06/16 10:34:52;;;;;;;4.57;3.07;;;28.40;42.80;;;;;;5025477;28;20525;-58
2021/06/16 10:37:32;;;;;;;6.13;3.33;;;28.60;41.90;;;;;;5023472;28;20430;-60
2021/06/16 10:40:15;;;;;;;5.20;3.17;;;28.70;41.10;;;;;;5010327;28;20273;-59
2021/06/16 10:42:59;;;;;;;4.00;3.23;;;28.80;41.60;;;;;;5013689;28;20168;-60
2021/06/16 10:45:28;;;;;;;3.53;3.23;;;29.00;41.90;;;;;;5022961;28;20194;-60
2021/06/16 10:48:07;;;;;;;2.70;2.50;;;29.10;40.30;;;;;;5025348;28;20179;-61
2021/06/16 10:50:48;;;;;;;3.37;3.00;;;29.10;38.60;;;;;;5027840;28;20187;-60
2021/06/16 10:53:25;;;;;;;3.97;2.70;;;29.20;39.50;;;;;;5017201;28;20340;-61
2021/06/16 10:55:53;;;;;;;3.90;2.87;;;29.30;40.20;;;;;;5023452;28;20565;-60
2021/06/16 10:58:25;;;;;;;3.03;2.73;;;29.30;40.10;;;;;;5027871;28;20254;-59
2021/06/16 11:01:14;;;;;;;5.53;2.97;;;29.40;39.10;;;;;;5028013;28;20215;-60
2021/06/16 11:03:46;;;;;;;4.70;3.33;;;29.40;40.40;;;;;;5018393;28;20254;-59
2021/06/16 11:06:36;;;;;;;4.23;2.87;;;29.50;41.30;;;;;;5029276;28;20779;-59
2021/06/16 11:09:14;;;;;;;4.73;3.07;;;29.60;41.00;;;;;;5024156;28;20187;-59
2021/06/16 11:12:00;;;;;;;3.07;2.63;;;29.70;39.60;;;;;;5024155;28;20186;-60
2021/06/16 11:14:35;;;;;;;3.57;3.10;;;29.50;37.30;;;;;;5028722;28;20178;-59
2021/06/16 11:17:27;;;;;;;3.07;2.70;;;29.40;37.20;;;;;;5029087;28;20422;-58
2021/06/16 11:19:57;;;;;;;5.87;2.97;;;29.40;38.30;;;;;;5013247;28;20211;-59
2021/06/16 11:22:23;;;;;;;2.70;2.50;;;29.40;38.20;;;;;;5028393;28;20167;-60
2021/06/16 11:25:13;;;;;;;4.90;2.80;;;29.50;38.60;;;;;;5023836;28;20262;-59
2021/06/16 11:27:56;;;;;;;5.70;3.60;;;29.70;37.80;;;;;;5026938;28;20237;-59
2021/06/16 11:31:01;;;;;;;10.00;3.40;;;29.50;37.70;;;;;;5028010;28;20423;-60
2021/06/16 11:33:32;;;;;;;5.73;3.10;;;29.40;38.20;;;;;;5026290;28;20614;-59
2021/06/16 11:36:27;;;;;;;6.23;2.93;;;29.50;39.00;;;;;;5027998;28;20735;-59
2021/06/16 11:39:04;;;;;;;3.20;2.90;;;29.60;38.60;;;;;;5027019;28;20222;-59
2021/06/16 11:41:30;;;;;;;3.00;2.70;;;29.80;39.30;;;;;;5008466;28;20198;-59
2021/06/16 11:43:59;;;;;;;82.70;10.88;;;29.90;39.70;;;;;;5023110;28;20676;-58
2021/06/16 11:46:37;;;;;;;13.95;3.05;;;30.10;38.80;;;;;;5028043;28;20202;-58
2021/06/16 11:49:20;;;;;;;4.32;2.83;;;30.30;38.90;;;;;;5023095;28;20179;-58
2021/06/16 11:51:49;;;;;;;3.53;3.22;;;30.40;38.50;;;;;;5023495;28;20206;-59
2021/06/16 11:54:30;;;;;;;6.32;2.70;;;30.50;38.80;;;;;;5027317;28;20555;-60
2021/06/16 11:57:00;;;;;;;6.05;3.47;;;30.50;37.60;;;;;;5029473;28;20197;-55
2021/06/16 11:59:45;;;;;;;3.65;3.30;;;30.60;38.70;;;;;;5028474;28;20255;-57
2021/06/16 12:02:29;;;;;;;3.33;3.03;;;30.60;38.50;;;;;;5026625;28;20262;-59
2021/06/16 12:05:03;;;;;;;4.43;3.30;;;30.70;37.80;;;;;;5025439;28;20179;-57
2021/06/16 12:07:33;;;;;;;6.88;3.00;;;30.80;38.40;;;;;;5029003;28;20268;-56
2021/06/16 12:10:14;;;;;;;3.17;2.88;;;30.90;39.40;;;;;;5028181;28;20163;-55
2021/06/16 12:12:50;;;;;;;3.42;3.08;;;31.00;38.40;;;;;;5028075;28;20670;-57
2021/06/16 12:15:29;;;;;;;4.28;2.90;;;31.20;38.80;;;;;;5025983;28;20217;-57
2021/06/16 12:18:07;;;;;;;4.15;3.38;;;31.30;37.00;;;;;;5024316;28;20191;-57
2021/06/16 12:20:33;;;;;;;2.88;2.67;;;31.40;36.20;;;;;;5024453;28;20226;-59
2021/06/16 12:23:01;;;;;;;9.98;3.17;;;31.40;35.30;;;;;;5022026;28;20535;-56
2021/06/16 12:25:32;;;;;;;7.15;3.38;;;31.40;35.00;;;;;;5020241;28;20195;-57
2021/06/16 12:27:59;;;;;;;4.00;2.92;;;31.30;35.00;;;;;;5028332;28;20287;-56
2021/06/16 12:30:31;;;;;;;4.35;2.83;;;31.30;36.30;;;;;;5025262;28;20175;-57
2021/06/16 12:33:12;;;;;;;7.25;2.97;;;31.30;36.10;;;;;;5027116;28;20180;-57
2021/06/16 12:35:42;;;;;;;3.75;3.35;;;31.30;35.30;;;;;;5027916;28;20222;-57
2021/06/16 12:38:08;;;;;;;3.92;2.90;;;31.40;35.60;;;;;;5025507;28;20243;-57
2021/06/16 12:40:36;;;;;;;3.20;2.90;;;31.60;36.10;;;;;;5027001;28;20195;-57
2021/06/16 12:43:03;;;;;;;3.53;2.90;;;31.80;37.40;;;;;;5026733;28;20172;-57
2021/06/16 12:45:30;;;;;;;3.10;2.80;;;31.90;37.80;;;;;;5020464;28;20626;-57
2021/06/16 12:47:58;;;;;;;3.30;2.40;;;32.00;35.80;;;;;;5027620;28;20179;-58
2021/06/16 12:50:35;;;;;;;3.58;2.60;;;32.10;34.00;;;;;;5023051;28;20207;-57
2021/06/16 12:53:18;;;;;;;4.18;3.00;;;32.10;34.10;;;;;;5027403;28;20222;-57
2021/06/16 12:55:53;;;;;;;2.50;2.30;;;32.10;34.10;;;;;;5026424;28;20554;-57